createdAt,value
2022-08-03T00:01:31.417Z,80.20
2022-08-03T00:03:58.267Z,79.70
2022-08-03T00:06:25.150Z,79.34
2022-08-03T00:08:52.214Z,79.00
2022-08-03T00:11:19.436Z,78.81
2022-08-03T00:13:46.712Z,78.60
2022-08-03T00:16:13.763Z,78.76
2022-08-03T00:18:40.933Z,79.24
2022-08-03T00:21:08.367Z,79.62
2022-08-03T00:23:52.858Z,80.37
2022-08-03T00:26:21.193Z,80.80
2022-08-03T00:28:48.684Z,80.83
2022-08-03T00:31:15.593Z,80.59
2022-08-03T00:33:59.442Z,80.41
2022-08-03T00:36:27.798Z,80.27
2022-08-03T00:38:55.600Z,80.07
2022-08-03T00:41:22.870Z,79.99
2022-08-03T00:43:50.010Z,79.72
2022-08-03T00:46:21.377Z,79.25
2022-08-03T00:48:50.451Z,78.77
2022-08-03T00:51:18.583Z,78.59
2022-08-03T00:53:46.166Z,78.74
2022-08-03T00:56:15.297Z,78.64
2022-08-03T00:58:45.099Z,78.92
2022-08-03T01:01:12.875Z,79.79
2022-08-03T01:03:40.339Z,80.59
2022-08-03T01:06:11.969Z,80.87
2022-08-03T01:09:10.277Z,80.90
2022-08-03T01:12:01.039Z,80.89
2022-08-03T01:14:44.364Z,80.90
2022-08-03T01:17:25.711Z,80.44
2022-08-03T01:20:10.239Z,79.83
2022-08-03T01:22:52.492Z,80.25
2022-08-03T01:25:54.425Z,80.07
2022-08-03T01:28:28.539Z,80.08
2022-08-03T01:31:01.649Z,80.05
2022-08-03T01:33:50.528Z,80.56
2022-08-03T01:36:23.203Z,80.68
2022-08-03T01:38:55.337Z,80.87
2022-08-03T01:41:29.070Z,81.52
2022-08-03T01:44:28.150Z,81.78
2022-08-03T01:46:50.141Z,82.05
2022-08-03T01:49:18.345Z,82.21
2022-08-03T01:52:02.981Z,81.86
2022-08-03T01:54:41.912Z,81.00
2022-08-03T01:57:10.863Z,80.62
2022-08-03T01:59:40.328Z,80.24
2022-08-03T02:02:31.813Z,79.96
2022-08-03T02:04:57.900Z,80.22
2022-08-03T02:07:26.901Z,79.95
2022-08-03T02:09:55.711Z,79.69
2022-08-03T02:12:25.359Z,79.52
2022-08-03T02:14:53.980Z,79.58
2022-08-03T02:17:38.486Z,79.67
2022-08-03T02:20:09.984Z,79.76
2022-08-03T02:22:40.570Z,79.77
2022-08-03T02:25:10.450Z,79.57
2022-08-03T02:27:43.621Z,79.46
2022-08-03T02:30:12.696Z,79.02
2022-08-03T02:32:42.640Z,79.40
2022-08-03T02:35:13.582Z,78.99
2022-08-03T02:37:49.501Z,78.80
2022-08-03T02:40:19.401Z,78.96
2022-08-03T02:42:49.309Z,79.39
2022-08-03T02:45:20.001Z,80.14
2022-08-03T02:47:53.938Z,80.39
2022-08-03T02:50:23.488Z,80.91
2022-08-03T02:52:52.013Z,81.11
2022-08-03T02:55:21.716Z,81.39
2022-08-03T02:57:50.199Z,81.49
2022-08-03T03:00:19.504Z,81.23
2022-08-03T03:02:58.418Z,81.25
2022-08-03T03:05:52.665Z,81.48
2022-08-03T03:08:17.639Z,81.05
2022-08-03T03:10:46.777Z,80.88
2022-08-03T03:13:15.359Z,80.48
2022-08-03T03:15:45.008Z,80.43
2022-08-03T03:18:16.774Z,80.39
2022-08-03T03:20:45.964Z,80.17
2022-08-03T03:23:14.039Z,80.13
2022-08-03T03:25:41.741Z,80.33
2022-08-03T03:28:11.682Z,80.26
2022-08-03T03:30:38.819Z,80.43
2022-08-03T03:33:05.954Z,80.25
2022-08-03T03:35:38.853Z,80.48
2022-08-03T03:38:07.419Z,80.90
2022-08-03T03:40:36.735Z,81.27
2022-08-03T03:43:07.508Z,81.63
2022-08-03T03:45:35.441Z,81.90
2022-08-03T03:48:05.048Z,81.63
2022-08-03T03:50:34.032Z,81.28
2022-08-03T03:53:02.216Z,81.30
2022-08-03T03:55:29.365Z,81.26
2022-08-03T03:57:56.581Z,81.36
2022-08-03T04:00:23.436Z,81.97
2022-08-03T04:02:50.267Z,82.51
2022-08-03T04:05:37.084Z,83.08
2022-08-03T04:08:30.434Z,83.45
2022-08-03T04:11:16.093Z,83.38
2022-08-03T04:13:55.383Z,83.41
2022-08-03T04:16:30.654Z,83.11
2022-08-03T04:19:09.534Z,82.62
2022-08-03T04:21:40.606Z,82.25
2022-08-03T04:24:10.963Z,81.90
2022-08-03T04:26:41.914Z,81.52
2022-08-03T04:29:11.096Z,81.14
2022-08-03T04:31:40.297Z,80.89
2022-08-03T04:34:07.915Z,80.83
2022-08-03T04:36:53.167Z,80.87
2022-08-03T04:39:26.610Z,80.86
2022-08-03T04:42:07.233Z,80.76
2022-08-03T04:44:45.318Z,80.73
2022-08-03T04:47:12.559Z,80.47
2022-08-03T04:49:40.694Z,80.52
2022-08-03T04:52:10.224Z,80.31
2022-08-03T04:54:50.317Z,79.61
2022-08-03T04:57:22.385Z,79.05
2022-08-03T05:00:01.401Z,78.04
2022-08-03T05:02:31.490Z,77.70
2022-08-03T05:04:59.150Z,77.03
2022-08-03T05:07:26.022Z,76.41
2022-08-03T05:09:57.599Z,76.10
2022-08-03T05:12:32.664Z,75.51
2022-08-03T05:15:00.888Z,75.05
2022-08-03T05:17:29.069Z,74.68
2022-08-03T05:19:56.567Z,74.40
2022-08-03T05:22:24.352Z,73.80
2022-08-03T05:24:51.407Z,73.38
2022-08-03T05:27:19.895Z,73.01
2022-08-03T05:29:47.879Z,72.24
2022-08-03T05:32:16.107Z,72.07
2022-08-03T05:34:43.804Z,71.51
2022-08-03T05:37:10.954Z,71.01
2022-08-03T05:39:38.320Z,70.30
2022-08-03T05:42:05.200Z,69.59
2022-08-03T05:44:32.287Z,69.43
2022-08-03T05:46:59.665Z,69.04
2022-08-03T05:49:26.625Z,69.05
2022-08-03T05:52:00.656Z,68.80
2022-08-03T05:54:55.998Z,68.79
2022-08-03T05:57:24.968Z,68.91
2022-08-03T05:59:53.887Z,69.04
2022-08-03T06:02:27.433Z,68.73
2022-08-03T06:04:54.721Z,67.86
2022-08-03T06:07:21.870Z,67.67
2022-08-03T06:10:35.229Z,68.12
2022-08-03T06:12:36.429Z,67.31
2022-08-03T06:15:05.281Z,66.21
2022-08-03T06:17:37.374Z,65.47
2022-08-03T06:20:06.060Z,65.07
2022-08-03T06:22:32.909Z,64.21
2022-08-03T06:25:04.132Z,62.76
2022-08-03T06:27:36.534Z,62.99
2022-08-03T06:30:07.057Z,62.60
2022-08-03T06:32:34.024Z,61.40
2022-08-03T06:35:01.352Z,60.73
2022-08-03T06:37:28.947Z,60.08
2022-08-03T06:39:57.710Z,59.67
2022-08-03T06:42:24.702Z,58.56
2022-08-03T06:44:52.299Z,57.63
2022-08-03T06:47:19.142Z,57.44
2022-08-03T06:50:12.658Z,57.00
2022-08-03T06:52:37.507Z,57.02
2022-08-03T06:55:06.423Z,55.97
2022-08-03T06:57:33.479Z,54.46
2022-08-03T07:00:07.494Z,54.66
2022-08-03T07:02:40.057Z,54.90
2022-08-03T07:05:08.093Z,53.53
2022-08-03T07:07:35.092Z,52.55
2022-08-03T07:10:02.609Z,52.57
2022-08-03T07:12:31.033Z,53.05
2022-08-03T07:15:01.676Z,51.80
2022-08-03T07:17:31.701Z,50.51
2022-08-03T07:20:00.101Z,50.40
2022-08-03T07:22:27.341Z,49.78
2022-08-03T07:24:54.305Z,50.32
2022-08-03T07:27:23.667Z,50.04
2022-08-03T07:29:50.612Z,49.19
2022-08-03T07:32:17.677Z,47.16
2022-08-03T07:34:44.884Z,46.66
2022-08-03T07:37:11.885Z,46.37
2022-08-03T07:39:38.724Z,47.72
2022-08-03T07:42:05.783Z,46.91
2022-08-03T07:44:32.736Z,45.60
2022-08-03T07:47:00.099Z,45.62
2022-08-03T07:49:30.722Z,46.57
2022-08-03T07:52:13.494Z,45.17
2022-08-03T07:54:40.335Z,45.52
2022-08-03T07:57:07.138Z,43.50
2022-08-03T07:59:56.609Z,42.51
2022-08-03T08:02:22.278Z,40.57
2022-08-03T08:04:49.116Z,40.53
2022-08-03T08:07:16.362Z,40.42
2022-08-03T08:09:45.210Z,39.69
2022-08-03T08:12:15.564Z,40.21
2022-08-03T08:14:45.931Z,38.18
2022-08-03T08:17:13.502Z,37.06
2022-08-03T08:19:43.793Z,36.90
2022-08-03T08:22:22.404Z,36.10
2022-08-03T08:24:57.134Z,34.27
2022-08-03T08:27:24.013Z,33.92
2022-08-03T08:29:55.169Z,33.43
2022-08-03T08:32:23.389Z,33.59
2022-08-03T08:34:50.233Z,34.85
2022-08-03T08:37:17.232Z,35.34
2022-08-03T08:39:44.048Z,35.93
2022-08-03T08:42:11.003Z,37.11
2022-08-03T08:44:37.840Z,37.16
2022-08-03T08:47:04.919Z,37.18
2022-08-03T08:49:36.112Z,38.23
2022-08-03T08:52:25.017Z,36.92
2022-08-03T08:54:57.288Z,37.08
2022-08-03T08:57:42.271Z,36.68
2022-08-03T09:00:14.894Z,36.82
2022-08-03T09:02:44.131Z,37.33
2022-08-03T09:05:13.280Z,37.24
2022-08-03T09:07:41.378Z,37.67
2022-08-03T09:10:13.315Z,38.09
2022-08-03T09:12:46.142Z,38.47
2022-08-03T09:15:20.312Z,39.10
2022-08-03T09:17:51.063Z,39.14
2022-08-03T09:20:20.528Z,38.27
2022-08-03T09:23:19.010Z,36.65
2022-08-03T09:25:58.518Z,37.72
2022-08-03T09:29:00.140Z,37.94
2022-08-03T09:31:31.611Z,37.66
2022-08-03T09:34:01.406Z,39.72
2022-08-03T09:36:44.807Z,37.80
2022-08-03T09:39:13.994Z,36.41
2022-08-03T09:41:44.454Z,36.54
2022-08-03T09:44:24.694Z,35.59
2022-08-03T09:46:56.438Z,33.37
2022-08-03T09:49:24.559Z,32.19
2022-08-03T09:52:31.494Z,33.03
2022-08-03T09:54:39.741Z,34.37
2022-08-03T09:57:06.595Z,34.70
2022-08-03T09:59:35.025Z,33.12
2022-08-03T10:02:02.184Z,33.38
2022-08-03T10:04:30.125Z,34.35
2022-08-03T10:07:12.654Z,33.15
2022-08-03T10:09:54.428Z,34.30
2022-08-03T10:12:22.144Z,34.92
2022-08-03T10:14:49.226Z,34.46
2022-08-03T10:17:16.477Z,34.29
2022-08-03T10:19:43.650Z,36.22
2022-08-03T10:22:19.527Z,35.67
2022-08-03T10:24:54.256Z,35.75
2022-08-03T10:27:24.370Z,35.61
2022-08-03T10:29:55.364Z,34.43
2022-08-03T10:32:28.818Z,36.10
2022-08-03T10:35:19.730Z,34.38
2022-08-03T10:37:56.879Z,36.41
2022-08-03T10:40:47.605Z,36.04
2022-08-03T10:43:20.763Z,37.69
2022-08-03T10:45:47.891Z,37.67
2022-08-03T10:48:15.996Z,38.72
2022-08-03T10:50:44.778Z,39.54
2022-08-03T10:53:11.707Z,39.10
2022-08-03T10:56:00.403Z,39.17
2022-08-03T10:58:57.718Z,40.16
2022-08-03T11:01:58.254Z,41.83
2022-08-03T11:04:26.872Z,38.86
2022-08-03T11:07:18.442Z,36.64
2022-08-03T11:09:49.922Z,36.08
2022-08-03T11:12:33.248Z,35.76
2022-08-03T11:15:05.004Z,35.37
2022-08-03T11:17:33.919Z,36.88
2022-08-03T11:20:14.931Z,33.71
2022-08-03T11:22:51.234Z,32.97
2022-08-03T11:25:53.128Z,33.28
2022-08-03T11:28:28.746Z,33.24
2022-08-03T11:30:55.861Z,33.59
2022-08-03T11:33:31.230Z,32.40
2022-08-03T11:36:00.327Z,31.71
2022-08-03T11:38:27.345Z,29.44
2022-08-03T11:40:54.946Z,30.20
2022-08-03T11:43:26.754Z,29.43
2022-08-03T11:46:00.461Z,29.52
2022-08-03T11:48:34.156Z,27.40
2022-08-03T11:51:01.943Z,27.78
2022-08-03T11:53:29.338Z,28.37
2022-08-03T11:55:59.995Z,27.02
2022-08-03T11:59:10.698Z,25.95
2022-08-03T12:01:21.264Z,25.77
2022-08-03T12:03:50.327Z,25.00
2022-08-03T12:06:19.177Z,25.88
2022-08-03T12:08:46.772Z,26.90
2022-08-03T12:11:15.982Z,25.91
2022-08-03T12:14:36.707Z,24.46
2022-08-03T12:16:31.349Z,24.14
2022-08-03T12:19:00.797Z,23.97
2022-08-03T12:21:29.042Z,24.84
2022-08-03T12:24:00.673Z,26.43
2022-08-03T12:26:29.337Z,27.79
2022-08-03T12:28:56.349Z,28.19
2022-08-03T12:31:23.364Z,28.26
2022-08-03T12:34:08.400Z,29.06
2022-08-03T12:36:36.397Z,30.68
2022-08-03T12:39:08.232Z,29.97
2022-08-03T12:41:38.939Z,31.21
2022-08-03T12:44:08.582Z,29.83
2022-08-03T12:46:37.404Z,29.55
2022-08-03T12:49:15.676Z,28.69
2022-08-03T12:51:43.430Z,29.38
2022-08-03T12:54:16.765Z,28.19
2022-08-03T12:57:01.702Z,26.99
2022-08-03T12:59:34.878Z,27.04
2022-08-03T13:02:09.507Z,27.36
2022-08-03T13:04:37.092Z,25.61
2022-08-03T13:07:06.869Z,25.16
2022-08-03T13:09:43.766Z,24.50
2022-08-03T13:12:12.332Z,24.14
2022-08-03T13:14:39.333Z,24.36
2022-08-03T13:17:07.228Z,24.73
2022-08-03T13:19:36.463Z,25.71
2022-08-03T13:22:20.317Z,26.05
2022-08-03T13:24:50.131Z,25.93
2022-08-03T13:28:02.538Z,25.45
2022-08-03T13:30:06.303Z,26.54
2022-08-03T13:32:33.745Z,26.21
2022-08-03T13:35:02.617Z,27.16
2022-08-03T13:37:32.647Z,28.52
2022-08-03T13:40:04.492Z,28.75
2022-08-03T13:42:33.698Z,28.15
2022-08-03T13:45:01.457Z,28.09
2022-08-03T13:47:29.270Z,27.09
2022-08-03T13:50:01.468Z,28.27
2022-08-03T13:52:31.797Z,27.49
2022-08-03T13:54:58.984Z,29.31
2022-08-03T13:58:11.350Z,28.98
2022-08-03T14:00:13.404Z,29.94
2022-08-03T14:02:57.249Z,31.96
2022-08-03T14:05:30.387Z,32.70
2022-08-03T14:08:04.149Z,32.44
2022-08-03T14:10:33.654Z,31.78
2022-08-03T14:13:00.664Z,33.34
2022-08-03T14:15:28.788Z,34.01
2022-08-03T14:17:58.401Z,35.87
2022-08-03T14:20:36.699Z,37.49
2022-08-03T14:23:07.290Z,36.98
2022-08-03T14:25:43.678Z,38.37
2022-08-03T14:28:21.384Z,37.20
2022-08-03T14:30:48.782Z,36.91
2022-08-03T14:33:16.027Z,37.44
2022-08-03T14:35:43.371Z,37.64
2022-08-03T14:38:10.235Z,37.24
2022-08-03T14:40:37.077Z,37.17
2022-08-03T14:43:04.059Z,37.00
2022-08-03T14:45:31.305Z,36.74
2022-08-03T14:50:34.937Z,36.42
2022-08-03T14:50:51.833Z,36.87
2022-08-03T14:53:20.179Z,36.56
2022-08-03T14:55:51.514Z,36.50
2022-08-03T14:58:22.083Z,37.17
2022-08-03T15:00:50.881Z,36.87
2022-08-03T15:03:23.425Z,37.21
2022-08-03T15:05:53.799Z,36.72
2022-08-03T15:08:36.766Z,37.47
2022-08-03T15:11:03.781Z,38.43
2022-08-03T15:13:31.855Z,36.83
2022-08-03T15:15:58.762Z,37.18
2022-08-03T15:18:25.623Z,36.95
2022-08-03T15:20:52.403Z,38.86
2022-08-03T15:23:19.629Z,38.51
2022-08-03T15:26:04.089Z,37.85
2022-08-03T15:28:34.836Z,39.43
2022-08-03T15:31:05.681Z,38.78
2022-08-03T15:33:33.124Z,39.10
2022-08-03T15:36:02.465Z,39.19
2022-08-03T15:38:29.332Z,38.21
2022-08-03T15:40:56.272Z,38.69
2022-08-03T15:43:23.940Z,38.58
2022-08-03T15:46:12.838Z,39.67
2022-08-03T15:48:39.402Z,38.70
2022-08-03T15:51:06.992Z,38.68
2022-08-03T15:53:34.794Z,38.75
2022-08-03T15:56:06.342Z,38.20
2022-08-03T15:59:09.395Z,38.31
2022-08-03T16:01:25.451Z,38.81
2022-08-03T16:03:52.674Z,38.29
2022-08-03T16:06:29.875Z,39.31
2022-08-03T16:09:01.833Z,39.31
2022-08-03T16:11:28.690Z,40.43
2022-08-03T16:14:11.924Z,38.98
2022-08-03T16:16:42.307Z,40.69
2022-08-03T16:19:09.358Z,39.55
2022-08-03T16:21:42.048Z,39.86
2022-08-03T16:24:17.469Z,38.51
2022-08-03T16:26:50.055Z,40.38
2022-08-03T16:29:23.653Z,39.97
2022-08-03T16:31:51.668Z,39.42
2022-08-03T16:34:19.092Z,39.24
2022-08-03T16:36:45.975Z,39.86
2022-08-03T16:39:12.931Z,39.74
2022-08-03T16:41:54.303Z,40.26
2022-08-03T16:44:27.518Z,42.22
2022-08-03T16:46:54.673Z,42.75
2022-08-03T16:49:53.287Z,42.02
2022-08-03T16:52:08.337Z,41.91
2022-08-03T16:54:35.275Z,42.98
2022-08-03T16:57:02.224Z,42.88
2022-08-03T16:59:36.069Z,42.65
2022-08-03T17:02:09.911Z,44.52
2022-08-03T17:04:37.189Z,46.67
2022-08-03T17:07:08.814Z,46.98
2022-08-03T17:09:38.300Z,47.47
2022-08-03T17:12:07.588Z,49.54
2022-08-03T17:14:38.592Z,50.70
2022-08-03T17:17:16.310Z,50.71
2022-08-03T17:19:47.250Z,51.11
2022-08-03T17:22:19.111Z,52.20
2022-08-03T17:24:49.972Z,52.50
2022-08-03T17:28:50.422Z,51.94
2022-08-03T17:30:15.274Z,53.28
2022-08-03T17:32:57.341Z,53.63
2022-08-03T17:35:36.479Z,53.90
2022-08-03T17:38:11.904Z,54.66
2022-08-03T17:40:43.094Z,54.28
2022-08-03T17:44:16.026Z,54.72
2022-08-03T17:46:10.562Z,54.51
2022-08-03T17:48:41.467Z,55.47
2022-08-03T17:51:17.279Z,56.12
2022-08-03T17:53:51.151Z,56.71
2022-08-03T17:56:42.627Z,57.56
2022-08-03T17:59:52.240Z,57.49
2022-08-03T18:02:47.820Z,58.38
2022-08-03T18:05:17.727Z,59.30
2022-08-03T18:07:47.902Z,59.84
2022-08-03T18:10:23.107Z,60.42
2022-08-03T18:12:54.933Z,60.70
2022-08-03T18:15:27.236Z,61.37
2022-08-03T18:18:02.675Z,62.00
2022-08-03T18:20:40.977Z,62.65
2022-08-03T18:23:11.436Z,62.59
2022-08-03T18:25:58.222Z,62.10
2022-08-03T18:28:27.205Z,62.55
2022-08-03T18:30:55.299Z,63.02
2022-08-03T18:34:19.924Z,63.35
2022-08-03T18:36:21.553Z,63.74
2022-08-03T18:38:51.834Z,63.84
2022-08-03T18:41:33.694Z,64.42
2022-08-03T18:44:08.283Z,64.69
2022-08-03T18:47:06.841Z,65.16
2022-08-03T18:50:00.904Z,64.69
2022-08-03T18:52:29.410Z,64.22
2022-08-03T18:55:19.894Z,64.44
2022-08-03T18:57:59.739Z,65.19
2022-08-03T19:00:42.344Z,65.59
2022-08-03T19:03:24.981Z,66.05
2022-08-03T19:06:16.028Z,66.46
2022-08-03T19:08:50.321Z,67.31
2022-08-03T19:11:28.025Z,68.05
2022-08-03T19:13:59.693Z,68.33
2022-08-03T19:16:34.764Z,68.57
2022-08-03T19:19:02.439Z,68.86
2022-08-03T19:21:31.378Z,68.93
2022-08-03T19:24:09.513Z,68.46
2022-08-03T19:26:39.663Z,68.73
2022-08-03T19:29:14.900Z,69.27
2022-08-03T19:31:54.429Z,69.65
2022-08-03T19:34:30.561Z,70.12
2022-08-03T19:36:58.851Z,70.30
2022-08-03T19:39:25.926Z,70.34
2022-08-03T19:41:58.466Z,70.93
2022-08-03T19:44:37.938Z,71.93
2022-08-03T19:47:11.368Z,72.44
2022-08-03T19:50:04.827Z,72.93
2022-08-03T19:52:38.035Z,72.94
2022-08-03T19:55:12.139Z,72.77
2022-08-03T19:57:43.262Z,72.85
2022-08-03T20:00:13.998Z,73.21
2022-08-03T20:02:41.480Z,73.54
2022-08-03T20:05:14.909Z,73.88
2022-08-03T20:07:47.777Z,73.65
2022-08-03T20:10:17.466Z,73.46
2022-08-03T20:12:47.542Z,73.35
2022-08-03T20:15:18.061Z,73.44
2022-08-03T20:17:56.771Z,73.74
2022-08-03T20:20:33.424Z,74.17
2022-08-03T20:23:13.838Z,74.36
2022-08-03T20:25:48.751Z,74.31
2022-08-03T20:28:30.815Z,73.89
2022-08-03T20:30:59.870Z,74.44
2022-08-03T20:33:27.885Z,74.88
2022-08-03T20:36:15.907Z,75.28
2022-08-03T20:38:47.125Z,75.77
2022-08-03T20:41:15.830Z,76.09
2022-08-03T20:43:43.003Z,76.15
2022-08-03T20:46:29.535Z,75.84
2022-08-03T20:48:58.832Z,75.48
2022-08-03T20:51:50.678Z,75.48
2022-08-03T20:54:22.792Z,75.73
2022-08-03T20:57:03.567Z,75.78
2022-08-03T20:59:47.013Z,75.39
2022-08-03T21:02:28.732Z,75.69
2022-08-03T21:05:03.526Z,75.76
2022-08-03T21:08:04.179Z,75.81
2022-08-03T21:10:31.235Z,76.06
2022-08-03T21:13:17.844Z,76.16
2022-08-03T21:16:06.861Z,76.55
2022-08-03T21:18:41.078Z,76.56
2022-08-03T21:21:10.294Z,76.75
2022-08-03T21:23:48.829Z,77.14
2022-08-03T21:26:18.955Z,77.36
2022-08-03T21:28:47.813Z,77.50
2022-08-03T21:31:24.660Z,77.59
2022-08-03T21:33:58.001Z,77.34
2022-08-03T21:36:27.898Z,77.32
2022-08-03T21:38:57.407Z,77.22
2022-08-03T21:41:29.138Z,77.35
2022-08-03T21:43:56.911Z,77.44
2022-08-03T21:46:26.624Z,77.48
2022-08-03T21:49:51.994Z,77.15
2022-08-03T21:51:49.254Z,77.17
2022-08-03T21:54:17.968Z,77.27
2022-08-03T21:56:48.552Z,77.64
2022-08-03T21:59:17.736Z,77.87
2022-08-03T22:01:49.193Z,77.82
2022-08-03T22:04:50.315Z,77.58
2022-08-03T22:07:08.139Z,77.30
2022-08-03T22:09:36.538Z,77.08
2022-08-03T22:12:04.135Z,77.08
2022-08-03T22:14:34.530Z,77.22
2022-08-03T22:17:06.313Z,77.35
2022-08-03T22:19:34.279Z,77.40
2022-08-03T22:22:06.205Z,77.54
2022-08-03T22:24:36.664Z,77.51
2022-08-03T22:27:19.996Z,77.17
2022-08-03T22:29:47.262Z,76.88
2022-08-03T22:32:14.160Z,76.82
2022-08-03T22:34:46.343Z,77.08
2022-08-03T22:37:16.652Z,77.33
2022-08-03T22:39:44.712Z,77.48
2022-08-03T22:42:12.063Z,77.46
2022-08-03T22:44:39.851Z,77.50
2022-08-03T22:47:07.313Z,77.60
2022-08-03T22:49:35.666Z,77.55
2022-08-03T22:52:02.709Z,77.41
2022-08-03T22:54:32.345Z,77.40
2022-08-03T22:56:59.836Z,77.46
2022-08-03T22:59:39.161Z,77.82
2022-08-03T23:02:20.918Z,77.90
2022-08-03T23:04:52.519Z,77.95
2022-08-03T23:07:27.645Z,78.03
2022-08-03T23:09:56.330Z,77.96
2022-08-03T23:12:23.685Z,78.01
2022-08-03T23:14:54.780Z,78.07
2022-08-03T23:17:24.412Z,78.08
2022-08-03T23:19:53.677Z,78.21
2022-08-03T23:22:29.572Z,78.24
2022-08-03T23:24:59.564Z,78.38
2022-08-03T23:27:27.560Z,78.28
2022-08-03T23:29:56.831Z,78.38
2022-08-03T23:32:26.460Z,78.55
2022-08-03T23:35:12.465Z,78.72
2022-08-03T23:38:04.277Z,78.74
2022-08-03T23:40:30.984Z,78.77
2022-08-03T23:42:58.492Z,78.77
2022-08-03T23:45:27.616Z,78.74
2022-08-03T23:47:55.023Z,78.55
2022-08-03T23:50:21.911Z,78.51
2022-08-03T23:52:50.435Z,78.44
2022-08-03T23:55:39.679Z,78.44
2022-08-03T23:58:12.942Z,78.06
